Time;durP1;ratioP1;P1;durP2;ratioP2;P2;SDS_P1;SDS_P2;PMS_P1;PMS_P2;Temp;Humidity;BMP_temperature;BMP_pressure;BME280_temperature;BME280_humidity;BME280_pressure;Samples;Min_cycle;Max_cycle;Signal;HPM_P1;HPM_P2
2020/12/28 00:01:47;;;;;;;8.18;5.63;;;9.20;99.90;;;;;;5070444;28;20098;-50
2020/12/28 00:04:15;;;;;;;7.63;5.28;;;9.10;99.90;;;;;;5083009;28;20061;-52
2020/12/28 00:06:46;;;;;;;10.40;6.43;;;9.20;99.90;;;;;;5046690;28;20048;-51
2020/12/28 00:09:14;;;;;;;7.60;4.95;;;9.20;99.90;;;;;;5070254;28;20049;-53
2020/12/28 00:11:41;;;;;;;8.55;5.88;;;9.20;99.90;;;;;;5047051;28;20128;-51
2020/12/28 00:14:10;;;;;;;7.90;5.45;;;9.20;99.90;;;;;;5038323;28;20039;-55
2020/12/28 00:16:37;;;;;;;7.47;5.22;;;9.20;99.90;;;;;;5070474;28;20469;-52
2020/12/28 00:19:05;;;;;;;8.98;5.57;;;9.20;99.90;;;;;;5038563;28;20040;-53
2020/12/28 00:21:34;;;;;;;8.80;5.88;;;9.10;99.90;;;;;;5052980;28;20059;-48
2020/12/28 00:24:01;;;;;;;7.30;5.57;;;9.10;99.90;;;;;;5039020;28;20050;-49
2020/12/28 00:26:36;;;;;;;9.88;6.00;;;9.10;99.90;;;;;;5068953;28;20124;-51
2020/12/28 00:29:05;;;;;;;10.32;5.80;;;9.10;99.90;;;;;;5022993;28;20145;-50
2020/12/28 00:31:36;;;;;;;11.07;6.68;;;9.20;99.90;;;;;;5026782;28;20470;-51
2020/12/28 00:34:03;;;;;;;7.57;6.47;;;9.20;99.90;;;;;;5045080;28;20109;-50
2020/12/28 00:36:33;;;;;;;8.43;6.72;;;9.30;99.90;;;;;;5039631;28;20078;-54
2020/12/28 00:39:01;;;;;;;9.65;6.70;;;9.30;99.90;;;;;;5063630;28;20044;-48
2020/12/28 00:41:29;;;;;;;10.50;7.18;;;9.30;99.90;;;;;;5043849;28;20041;-47
2020/12/28 00:43:59;;;;;;;11.50;6.90;;;9.30;99.90;;;;;;5067356;28;20044;-49
2020/12/28 00:46:28;;;;;;;9.10;6.63;;;9.30;99.90;;;;;;5068587;28;20493;-49
2020/12/28 00:48:56;;;;;;;9.65;6.40;;;9.30;99.90;;;;;;5039259;28;20383;-50
2020/12/28 00:51:23;;;;;;;9.10;5.88;;;9.30;99.90;;;;;;5051172;28;20051;-52
2020/12/28 00:53:53;;;;;;;9.07;6.05;;;9.20;99.90;;;;;;5039660;28;20040;-51
2020/12/28 00:56:22;;;;;;;8.75;6.82;;;9.20;99.90;;;;;;5047784;28;20135;-49
2020/12/28 00:58:53;;;;;;;11.27;7.40;;;9.20;99.90;;;;;;5058447;28;20047;-54
2020/12/28 01:01:20;;;;;;;9.73;7.50;;;9.20;99.90;;;;;;5070581;28;20048;-51
2020/12/28 01:03:48;;;;;;;10.07;6.35;;;9.20;99.90;;;;;;5058359;28;20045;-49
2020/12/28 01:06:19;;;;;;;8.93;6.55;;;9.10;99.90;;;;;;5064552;28;20056;-50
2020/12/28 01:09:07;;;;;;;13.20;7.75;;;9.10;99.90;;;;;;5047848;28;20043;-50
2020/12/28 01:11:37;;;;;;;11.27;6.63;;;9.20;99.90;;;;;;5047001;28;20575;-52
2020/12/28 01:14:12;;;;;;;11.77;6.60;;;9.10;99.90;;;;;;5053467;28;20040;-53
2020/12/28 01:16:44;;;;;;;13.82;6.07;;;9.10;99.90;;;;;;5069457;28;20044;-52
2020/12/28 01:19:12;;;;;;;8.85;5.93;;;9.10;99.90;;;;;;5068459;28;20057;-50
2020/12/28 01:21:40;;;;;;;7.22;5.10;;;9.00;99.90;;;;;;5061743;28;20070;-53
2020/12/28 01:24:11;;;;;;;11.23;6.18;;;9.00;99.90;;;;;;5060806;28;20127;-51
2020/12/28 01:26:42;;;;;;;7.63;5.00;;;9.00;99.90;;;;;;5051048;28;20513;-53
2020/12/28 01:29:14;;;;;;;8.60;5.13;;;9.00;99.90;;;;;;5048549;28;20040;-50
2020/12/28 01:31:44;;;;;;;7.63;5.55;;;9.00;99.90;;;;;;5047494;28;20083;-53
2020/12/28 01:34:22;;;;;;;9.70;5.35;;;8.90;99.90;;;;;;5048051;28;20052;-54
2020/12/28 01:37:01;;;;;;;6.43;5.72;;;8.90;99.90;;;;;;5084639;28;20039;-55
2020/12/28 01:39:45;;;;;;;9.02;6.18;;;8.90;99.90;;;;;;5043895;28;20036;-53
2020/12/28 01:42:12;;;;;;;11.10;6.05;;;8.80;99.90;;;;;;5051903;28;20132;-50
2020/12/28 01:44:42;;;;;;;9.65;5.55;;;8.80;99.90;;;;;;5047279;28;20044;-52
2020/12/28 01:47:19;;;;;;;;;;;8.80;99.90;;;;;;5052762;28;20583;-52
2020/12/28 01:49:50;;;;;;;9.88;5.13;;;8.80;99.90;;;;;;5047678;28;19920;-49
2020/12/28 01:52:19;;;;;;;7.50;5.25;;;8.80;99.90;;;;;;5045238;28;20040;-51
2020/12/28 01:54:58;;;;;;;8.00;6.32;;;8.80;99.90;;;;;;5037414;28;20060;-49
2020/12/28 01:57:31;;;;;;;6.93;5.40;;;8.80;99.90;;;;;;5036173;28;20447;-51
2020/12/28 02:00:06;;;;;;;8.52;6.07;;;8.80;99.90;;;;;;5044478;28;20085;-52
2020/12/28 02:02:57;;;;;;;6.93;5.28;;;8.80;99.90;;;;;;5054607;28;20136;-49
2020/12/28 02:05:48;;;;;;;8.85;6.05;;;8.70;99.90;;;;;;5057237;28;20139;-50
2020/12/28 02:08:16;;;;;;;8.75;5.97;;;8.70;99.90;;;;;;5055344;28;20051;-49
2020/12/28 02:10:44;;;;;;;10.75;6.32;;;8.70;99.90;;;;;;5031901;28;20059;-48
2020/12/28 02:13:12;;;;;;;6.95;5.65;;;8.70;99.90;;;;;;5056129;28;20047;-49
2020/12/28 02:15:58;;;;;;;12.52;6.25;;;8.70;99.90;;;;;;5046693;28;20076;-54
2020/12/28 02:18:33;;;;;;;7.35;5.65;;;8.70;99.90;;;;;;5057412;28;20055;-51
2020/12/28 02:21:11;;;;;;;8.55;5.68;;;8.60;99.90;;;;;;5051158;28;20052;-50
2020/12/28 02:23:42;;;;;;;8.57;5.82;;;8.60;99.90;;;;;;5038570;28;20098;-47
2020/12/28 02:26:10;;;;;;;9.48;6.55;;;8.60;99.90;;;;;;5049731;28;20052;-51
2020/12/28 02:28:38;;;;;;;14.30;7.05;;;8.60;99.90;;;;;;5037401;28;20032;-49
2020/12/28 02:31:06;;;;;;;9.05;6.93;;;8.60;99.90;;;;;;5032478;28;20041;-50
2020/12/28 02:33:55;;;;;;;9.13;6.40;;;8.70;99.90;;;;;;5050669;28;20036;-52
2020/12/28 02:36:28;;;;;;;12.02;7.93;;;8.60;99.90;;;;;;5038511;28;20048;-49
2020/12/28 02:38:55;;;;;;;9.85;6.25;;;8.70;99.90;;;;;;5041994;28;20066;-48
2020/12/28 02:41:25;;;;;;;9.68;5.88;;;8.60;99.90;;;;;;5070122;28;20496;-48
2020/12/28 02:44:16;;;;;;;9.25;6.15;;;8.60;99.90;;;;;;5065888;28;20119;-49
2020/12/28 02:47:03;;;;;;;12.48;5.50;;;8.70;99.90;;;;;;5078399;28;20056;-50
2020/12/28 02:49:49;;;;;;;7.13;4.80;;;8.80;99.90;;;;;;5090078;28;20047;-48
2020/12/28 02:52:35;;;;;;;8.00;5.57;;;8.80;99.90;;;;;;5041253;28;20190;-47
2020/12/28 02:55:21;;;;;;;8.40;6.55;;;8.70;99.90;;;;;;5084504;28;20072;-50
2020/12/28 02:58:21;;;;;;;8.10;6.03;;;8.70;99.90;;;;;;5058903;28;20044;-49
2020/12/28 03:01:07;;;;;;;9.00;6.22;;;8.70;99.90;;;;;;5067968;28;20045;-49
2020/12/28 03:03:55;;;;;;;7.72;5.35;;;8.70;99.90;;;;;;5066188;28;20342;-49
2020/12/28 03:06:49;;;;;;;9.50;5.35;;;8.70;99.90;;;;;;5070286;28;20059;-49
2020/12/28 03:09:35;;;;;;;7.53;5.20;;;8.70;99.90;;;;;;5089740;28;20405;-47
2020/12/28 03:12:31;;;;;;;7.57;4.82;;;8.70;99.90;;;;;;5066706;28;20047;-49
2020/12/28 03:15:20;;;;;;;6.97;4.60;;;8.70;99.90;;;;;;5066050;28;20044;-48
2020/12/28 03:18:06;;;;;;;6.63;4.28;;;8.60;99.90;;;;;;5078783;28;20048;-50
2020/12/28 03:20:52;;;;;;;7.45;5.20;;;8.50;99.90;;;;;;5065537;28;20043;-49
2020/12/28 03:23:39;;;;;;;6.85;4.32;;;8.50;99.90;;;;;;5053717;28;20121;-48
2020/12/28 03:26:25;;;;;;;6.40;4.57;;;8.50;99.90;;;;;;5064414;28;20067;-50
2020/12/28 03:29:20;;;;;;;7.80;4.68;;;8.40;99.90;;;;;;5075670;28;20047;-52
2020/12/28 03:32:08;;;;;;;6.90;4.53;;;8.30;99.90;;;;;;5062785;28;20100;-49
2020/12/28 03:34:54;;;;;;;7.30;5.03;;;8.30;99.90;;;;;;5065242;28;20486;-49
2020/12/28 03:37:40;;;;;;;7.43;4.17;;;8.30;99.90;;;;;;5055829;28;20075;-50
2020/12/28 03:40:26;;;;;;;5.85;3.88;;;8.30;99.90;;;;;;5084824;28;20494;-49
2020/12/28 03:43:15;;;;;;;6.43;3.67;;;8.30;99.90;;;;;;5071521;28;20048;-49
2020/12/28 03:46:00;;;;;;;6.07;4.30;;;8.30;99.90;;;;;;5066254;28;20051;-48
2020/12/28 03:48:46;;;;;;;5.55;3.15;;;8.40;99.90;;;;;;5079355;28;20063;-51
2020/12/28 03:51:32;;;;;;;6.68;3.50;;;8.40;99.90;;;;;;5065843;28;20478;-55
2020/12/28 03:54:18;;;;;;;5.72;3.42;;;8.50;99.90;;;;;;5073734;28;20079;-49
2020/12/28 03:57:04;;;;;;;8.02;4.15;;;8.50;99.90;;;;;;5077387;28;20129;-55
2020/12/28 03:59:52;;;;;;;6.10;3.42;;;8.50;99.90;;;;;;5065229;28;20147;-52
2020/12/28 04:02:38;;;;;;;4.67;3.20;;;8.50;99.90;;;;;;5054993;28;20071;-51
2020/12/28 04:05:24;;;;;;;6.30;4.70;;;8.50;99.90;;;;;;5069725;28;20221;-48
2020/12/28 04:08:33;;;;;;;12.35;4.68;;;8.30;99.90;;;;;;4995696;28;20038;-54
2020/12/28 04:11:19;;;;;;;7.60;5.20;;;8.20;99.90;;;;;;4984583;28;20086;-51
2020/12/28 04:14:20;;;;;;;9.40;5.00;;;8.10;99.90;;;;;;5007910;28;20466;-52
2020/12/28 04:16:47;;;;;;;5.45;4.63;;;8.10;99.90;;;;;;5089121;28;20052;-48
2020/12/28 04:19:15;;;;;;;8.25;5.43;;;8.10;99.90;;;;;;5070594;28;20083;-50
2020/12/28 04:21:42;;;;;;;7.40;4.57;;;8.10;99.90;;;;;;5079805;28;20064;-49
2020/12/28 04:24:15;;;;;;;7.15;5.07;;;8.00;99.90;;;;;;5061906;28;20052;-48
2020/12/28 04:26:46;;;;;;;9.32;4.57;;;8.00;99.90;;;;;;5071711;28;20060;-49
2020/12/28 04:29:14;;;;;;;8.18;5.15;;;8.00;99.90;;;;;;5054115;28;20131;-51
2020/12/28 04:31:44;;;;;;;8.77;5.38;;;8.00;99.90;;;;;;5071783;28;20052;-47
2020/12/28 04:34:12;;;;;;;14.00;5.07;;;8.00;99.90;;;;;;5070359;28;20131;-52
2020/12/28 04:36:42;;;;;;;7.75;4.03;;;8.00;99.90;;;;;;5062366;28;20044;-50
2020/12/28 04:39:09;;;;;;;11.35;4.90;;;8.00;99.90;;;;;;5044981;28;20070;-52
2020/12/28 04:41:36;;;;;;;5.38;3.72;;;8.00;99.90;;;;;;5087750;28;20113;-51
2020/12/28 04:44:04;;;;;;;5.95;4.20;;;8.00;99.90;;;;;;5038830;28;20048;-51
2020/12/28 04:46:31;;;;;;;8.45;4.68;;;8.00;99.90;;;;;;5069150;28;20508;-54
2020/12/28 04:48:59;;;;;;;5.25;3.83;;;8.00;99.90;;;;;;5069905;28;20560;-47
2020/12/28 04:51:26;;;;;;;6.10;3.42;;;8.00;99.90;;;;;;5047336;28;20062;-53
2020/12/28 04:53:58;;;;;;;6.05;3.72;;;8.00;99.90;;;;;;5060182;28;20044;-50
2020/12/28 04:56:26;;;;;;;9.48;4.32;;;8.00;99.90;;;;;;5067769;28;20059;-50
2020/12/28 04:58:53;;;;;;;4.03;3.20;;;8.00;99.90;;;;;;5056135;28;20043;-47
2020/12/28 05:01:20;;;;;;;8.02;3.63;;;8.00;99.90;;;;;;5076447;28;20048;-46
2020/12/28 05:03:50;;;;;;;7.25;4.07;;;8.00;99.90;;;;;;5070714;28;20044;-50
2020/12/28 05:06:17;;;;;;;6.72;3.58;;;8.00;99.90;;;;;;5082666;28;20335;-49
2020/12/28 05:08:44;;;;;;;8.15;4.05;;;8.10;99.90;;;;;;5059589;28;20123;-51
2020/12/28 05:11:14;;;;;;;6.13;3.20;;;8.00;99.90;;;;;;5066885;28;20381;-50
2020/12/28 05:13:48;;;;;;;4.82;2.40;;;8.00;99.90;;;;;;5056395;28;20081;-48
2020/12/28 05:16:33;;;;;;;4.30;2.80;;;8.00;99.90;;;;;;5079809;28;20070;-51
2020/12/28 05:19:02;;;;;;;6.57;2.90;;;8.10;99.90;;;;;;5052757;28;20055;-47
2020/12/28 05:21:30;;;;;;;4.20;3.03;;;8.10;99.90;;;;;;5062896;28;20041;-52
2020/12/28 05:24:09;;;;;;;5.60;2.35;;;8.20;99.90;;;;;;5061115;28;20449;-51
2020/12/28 05:26:41;;;;;;;4.35;2.58;;;8.20;99.90;;;;;;5069008;28;20415;-54
2020/12/28 05:29:14;;;;;;;3.90;2.67;;;8.30;99.90;;;;;;5087142;28;20048;-50
2020/12/28 05:31:44;;;;;;;5.82;2.67;;;8.20;99.90;;;;;;5079033;28;20048;-51
2020/12/28 05:34:26;;;;;;;3.42;2.55;;;8.20;99.90;;;;;;5060750;28;20036;-51
2020/12/28 05:36:58;;;;;;;11.25;3.75;;;8.20;99.90;;;;;;5089142;28;20481;-49
2020/12/28 05:39:28;;;;;;;4.05;2.70;;;8.30;99.90;;;;;;5086883;28;20075;-53
2020/12/28 05:41:57;;;;;;;6.30;2.80;;;8.20;99.90;;;;;;5046015;28;20078;-52
2020/12/28 05:44:28;;;;;;;5.15;2.58;;;8.20;99.90;;;;;;5068174;28;20125;-49
2020/12/28 05:47:03;;;;;;;5.20;2.28;;;8.20;99.90;;;;;;5071042;28;20072;-48
2020/12/28 05:49:39;;;;;;;5.80;3.20;;;8.20;99.90;;;;;;5069104;28;20054;-48
2020/12/28 05:52:09;;;;;;;6.30;2.58;;;8.30;99.90;;;;;;5075258;28;20414;-50
2020/12/28 05:54:37;;;;;;;6.00;3.08;;;8.30;99.90;;;;;;5056820;28;20135;-49
2020/12/28 05:57:06;;;;;;;3.40;1.98;;;8.30;99.90;;;;;;5068972;28;20036;-48
2020/12/28 05:59:37;;;;;;;3.85;2.88;;;8.30;99.90;;;;;;5066617;28;20088;-48
2020/12/28 06:02:11;;;;;;;3.55;2.03;;;8.30;99.90;;;;;;5054215;28;20136;-48
2020/12/28 06:04:39;;;;;;;4.57;2.78;;;8.30;99.90;;;;;;5040707;28;20537;-51
2020/12/28 06:07:06;;;;;;;3.40;2.00;;;8.30;99.90;;;;;;5069123;28;20052;-46
2020/12/28 06:09:36;;;;;;;7.10;3.10;;;8.30;99.90;;;;;;5046460;28;20049;-51
2020/12/28 06:12:10;;;;;;;3.38;2.15;;;8.30;99.90;;;;;;5069140;28;20126;-48
2020/12/28 06:14:39;;;;;;;15.10;2.65;;;8.30;99.90;;;;;;5063794;28;20378;-49
2020/12/28 06:17:13;;;;;;;11.38;2.83;;;8.30;99.90;;;;;;5069250;28;20054;-48
2020/12/28 06:19:47;;;;;;;6.05;2.30;;;8.40;99.90;;;;;;5048982;28;20045;-49
2020/12/28 06:22:24;;;;;;;5.60;2.25;;;8.40;99.90;;;;;;5053665;28;20063;-53
2020/12/28 06:25:06;;;;;;;6.18;2.28;;;8.50;99.90;;;;;;5056786;28;20382;-49
2020/12/28 06:27:38;;;;;;;4.45;2.60;;;8.80;99.90;;;;;;5033088;28;20047;-51
2020/12/28 06:30:16;;;;;;;5.50;1.60;;;9.30;99.90;;;;;;5040820;28;20099;-51
2020/12/28 06:32:45;;;;;;;4.03;2.03;;;9.90;99.90;;;;;;5072378;28;20049;-52
2020/12/28 06:35:14;;;;;;;2.85;2.17;;;10.40;99.90;;;;;;5064079;28;20052;-51
2020/12/28 06:37:54;;;;;;;3.08;2.35;;;11.30;99.90;;;;;;5035031;28;20140;-51
2020/12/28 06:40:51;;;;;;;7.38;2.22;;;12.00;99.90;;;;;;5059634;28;20040;-48
2020/12/28 06:43:21;;;;;;;3.67;2.00;;;12.80;99.90;;;;;;5068942;28;20502;-50
2020/12/28 06:45:52;;;;;;;3.75;2.20;;;13.10;99.90;;;;;;5057022;28;20399;-48
2020/12/28 06:48:24;;;;;;;5.05;2.25;;;13.80;99.90;;;;;;5035979;28;20041;-52
2020/12/28 06:50:53;;;;;;;4.65;2.17;;;14.40;99.30;;;;;;5063141;28;20542;-48
2020/12/28 06:53:27;;;;;;;5.45;2.95;;;15.00;98.00;;;;;;5069275;28;20029;-52
2020/12/28 06:56:11;;;;;;;4.47;2.72;;;15.40;97.10;;;;;;5063765;28;20502;-49
2020/12/28 06:58:38;;;;;;;8.05;3.25;;;16.00;95.50;;;;;;5054325;28;20037;-50
2020/12/28 07:01:07;;;;;;;4.05;2.15;;;16.70;94.60;;;;;;5062216;28;20071;-51
2020/12/28 07:03:34;;;;;;;13.05;3.75;;;17.30;93.60;;;;;;5050910;28;20375;-49
2020/12/28 07:06:18;;;;;;;5.13;3.00;;;17.80;92.40;;;;;;5059999;28;20118;-50
2020/12/28 07:08:46;;;;;;;4.10;2.92;;;18.10;91.30;;;;;;5055086;28;20482;-52
2020/12/28 07:11:20;;;;;;;4.80;3.03;;;18.40;90.50;;;;;;5046024;28;20098;-50
2020/12/28 07:13:47;;;;;;;6.50;2.55;;;18.70;88.80;;;;;;5067628;28;20082;-47
2020/12/28 07:16:15;;;;;;;4.30;2.25;;;18.90;88.30;;;;;;5045656;28;20182;-50
2020/12/28 07:18:42;;;;;;;4.25;2.58;;;19.20;87.70;;;;;;5069147;28;20098;-48
2020/12/28 07:21:10;;;;;;;10.27;5.75;;;19.40;85.30;;;;;;5064238;28;20048;-53
2020/12/28 07:23:37;;;;;;;8.07;3.47;;;19.50;84.80;;;;;;5041095;28;20040;-54
2020/12/28 07:26:18;;;;;;;5.90;2.33;;;18.90;84.80;;;;;;5066785;28;20072;-50
2020/12/28 07:28:49;;;;;;;5.85;3.13;;;19.00;85.00;;;;;;5036140;28;20075;-52
2020/12/28 07:31:22;;;;;;;6.38;2.92;;;19.40;83.60;;;;;;5062772;28;20048;-52
2020/12/28 07:33:52;;;;;;;9.85;5.40;;;20.10;82.30;;;;;;5060032;28;20036;-48
2020/12/28 07:36:28;;;;;;;9.85;5.63;;;20.50;80.80;;;;;;5059510;28;20432;-48
2020/12/28 07:38:57;;;;;;;7.15;4.43;;;21.30;78.10;;;;;;5067364;28;20052;-48
2020/12/28 07:41:29;;;;;;;5.85;2.80;;;21.80;76.70;;;;;;5046152;28;20103;-47
2020/12/28 07:43:58;;;;;;;9.05;2.70;;;22.30;74.70;;;;;;5069983;28;20041;-48
2020/12/28 07:46:32;;;;;;;3.15;2.38;;;22.30;73.60;;;;;;5066802;28;20040;-47
2020/12/28 07:49:23;;;;;;;3.95;1.77;;;21.60;73.50;;;;;;5053315;28;20048;-47
2020/12/28 07:51:54;;;;;;;10.18;6.07;;;20.60;76.30;;;;;;5069636;28;20127;-48
2020/12/28 07:54:25;;;;;;;4.18;2.65;;;19.70;77.70;;;;;;5051977;28;20045;-51
2020/12/28 07:57:02;;;;;;;4.05;1.90;;;18.50;82.00;;;;;;5073673;28;20063;-53
2020/12/28 07:59:52;;;;;;;4.93;2.25;;;17.60;85.10;;;;;;5088882;28;20382;-49
2020/12/28 08:02:26;;;;;;;10.27;4.60;;;16.70;89.00;;;;;;5041268;28;20054;-49
2020/12/28 08:04:57;;;;;;;6.32;3.10;;;15.80;91.90;;;;;;5062219;28;20056;-46
2020/12/28 08:07:24;;;;;;;4.82;2.33;;;15.70;92.80;;;;;;5053964;28;20513;-50
2020/12/28 08:09:53;;;;;;;6.05;2.60;;;15.70;93.10;;;;;;5076740;28;20581;-52
2020/12/28 08:12:21;;;;;;;6.28;2.65;;;15.40;93.90;;;;;;5059887;28;20044;-51
2020/12/28 08:14:53;;;;;;;6.10;3.83;;;15.20;94.70;;;;;;5065687;28;20064;-52
2020/12/28 08:17:28;;;;;;;6.47;3.13;;;15.30;95.10;;;;;;5094272;28;20039;-48
2020/12/28 08:20:12;;;;;;;5.43;3.28;;;15.40;95.10;;;;;;5054772;28;20050;-49
2020/12/28 08:22:40;;;;;;;5.03;3.53;;;15.90;95.10;;;;;;5057130;28;20044;-49
2020/12/28 08:25:10;;;;;;;7.40;3.72;;;16.00;94.50;;;;;;5063148;28;20056;-51
2020/12/28 08:27:38;;;;;;;8.40;4.60;;;15.80;95.00;;;;;;5076861;28;20102;-51
2020/12/28 08:30:08;;;;;;;7.43;5.57;;;15.80;95.80;;;;;;5069047;28;20052;-50
2020/12/28 08:32:40;;;;;;;5.13;2.47;;;16.30;95.10;;;;;;5074456;28;20123;-47
2020/12/28 08:35:08;;;;;;;7.78;4.90;;;16.30;95.00;;;;;;5030503;28;20435;-53
2020/12/28 08:37:47;;;;;;;5.25;2.42;;;16.30;94.80;;;;;;5043937;28;20078;-49
2020/12/28 08:40:19;;;;;;;5.00;2.45;;;16.00;95.20;;;;;;5085640;28;20097;-50
2020/12/28 08:42:55;;;;;;;5.32;2.65;;;15.60;96.40;;;;;;5083912;28;20051;-50
2020/12/28 08:45:28;;;;;;;6.72;2.67;;;15.30;97.40;;;;;;5065216;28;20482;-55
2020/12/28 08:47:57;;;;;;;3.78;2.55;;;14.90;98.10;;;;;;5059056;28;20036;-50
2020/12/28 08:50:34;;;;;;;4.38;3.22;;;14.70;99.10;;;;;;5084340;28;20143;-52
2020/12/28 08:53:01;;;;;;;7.32;3.60;;;14.50;99.30;;;;;;5056216;28;20049;-54
2020/12/28 08:55:29;;;;;;;7.25;3.53;;;14.40;99.70;;;;;;5082403;28;20146;-50
2020/12/28 08:57:59;;;;;;;4.38;2.15;;;14.60;99.90;;;;;;5075799;28;20449;-49
2020/12/28 09:00:27;;;;;;;4.88;2.13;;;14.70;99.50;;;;;;5084802;28;20505;-52
2020/12/28 09:02:59;;;;;;;4.93;2.30;;;14.60;98.90;;;;;;5073535;28;20571;-52
2020/12/28 09:05:30;;;;;;;2.92;1.90;;;14.80;99.30;;;;;;5084253;28;20044;-52
2020/12/28 09:07:57;;;;;;;7.30;2.45;;;14.70;98.90;;;;;;5039060;28;20053;-49
2020/12/28 09:10:25;;;;;;;7.32;2.78;;;14.50;99.40;;;;;;5083814;28;20051;-51
2020/12/28 09:12:53;;;;;;;5.00;3.05;;;14.10;99.90;;;;;;5065995;28;20067;-52
2020/12/28 09:15:20;;;;;;;4.85;2.40;;;13.80;99.90;;;;;;5081534;28;20146;-49
2020/12/28 09:17:49;;;;;;;5.60;2.75;;;13.70;99.90;;;;;;5059037;28;20048;-53
2020/12/28 09:20:17;;;;;;;7.68;3.08;;;13.60;99.90;;;;;;5063690;28;20052;-51
2020/12/28 09:22:44;;;;;;;5.00;2.28;;;13.60;99.90;;;;;;5075559;28;20444;-49
2020/12/28 09:25:12;;;;;;;6.57;2.30;;;13.60;99.90;;;;;;5067354;28;20393;-52
2020/12/28 09:27:40;;;;;;;10.35;4.28;;;13.60;99.90;;;;;;5056091;28;20056;-49
2020/12/28 09:30:08;;;;;;;8.07;5.00;;;13.60;99.90;;;;;;5062038;28;20050;-47
2020/12/28 09:32:40;;;;;;;10.55;3.88;;;13.50;99.90;;;;;;5076178;28;20051;-49
2020/12/28 09:35:08;;;;;;;4.40;2.40;;;13.40;99.90;;;;;;5034737;28;20064;-50
2020/12/28 09:37:36;;;;;;;10.93;3.28;;;13.50;99.90;;;;;;5055511;28;20045;-53
2020/12/28 09:40:05;;;;;;;3.58;2.40;;;13.60;99.90;;;;;;5060929;28;20114;-48
2020/12/28 09:42:33;;;;;;;8.35;2.25;;;14.00;99.90;;;;;;5075574;28;20036;-52
2020/12/28 09:45:01;;;;;;;3.10;2.00;;;14.30;99.80;;;;;;5046525;28;20356;-47
2020/12/28 09:47:28;;;;;;;5.43;1.88;;;14.50;99.00;;;;;;5075187;28;20051;-50
2020/12/28 09:49:56;;;;;;;2.15;1.30;;;14.60;97.60;;;;;;5069042;28;20048;-50
2020/12/28 09:52:24;;;;;;;2.17;1.23;;;14.60;97.50;;;;;;5019175;28;20136;-46
2020/12/28 09:54:51;;;;;;;2.05;1.38;;;14.80;97.20;;;;;;5074711;28;20135;-50
2020/12/28 09:57:19;;;;;;;3.75;1.42;;;14.80;96.50;;;;;;5074668;28;20040;-52
2020/12/28 09:59:46;;;;;;;4.15;2.13;;;14.90;96.80;;;;;;5068853;28;20048;-49
2020/12/28 10:02:14;;;;;;;7.55;2.47;;;14.90;96.30;;;;;;5056674;28;20082;-50
2020/12/28 10:04:41;;;;;;;2.65;1.50;;;15.00;96.70;;;;;;5060668;28;20076;-50
2020/12/28 10:07:09;;;;;;;3.35;1.63;;;15.00;95.50;;;;;;5073247;28;20090;-49
2020/12/28 10:09:39;;;;;;;11.63;2.72;;;15.00;94.40;;;;;;5068878;28;20089;-50
2020/12/28 10:12:06;;;;;;;2.10;1.38;;;15.10;94.10;;;;;;5045571;28;20044;-50
2020/12/28 10:14:34;;;;;;;3.65;1.50;;;15.10;94.20;;;;;;5049802;28;20060;-52
2020/12/28 10:17:02;;;;;;;4.07;1.50;;;15.10;94.30;;;;;;5089232;28;20039;-52
2020/12/28 10:19:29;;;;;;;3.30;2.00;;;15.00;93.70;;;;;;5068369;28;20490;-50
2020/12/28 10:22:00;;;;;;;5.68;2.22;;;15.00;93.70;;;;;;5076470;28;20105;-51
2020/12/28 10:24:29;;;;;;;3.53;1.77;;;15.00;94.00;;;;;;5077974;28;20494;-48
2020/12/28 10:26:59;;;;;;;5.13;2.55;;;15.10;94.70;;;;;;5071774;28;20076;-49
2020/12/28 10:29:27;;;;;;;6.50;2.53;;;15.10;94.90;;;;;;5068677;28;20043;-51
2020/12/28 10:32:00;;;;;;;3.10;1.40;;;14.90;95.40;;;;;;5076492;28;20050;-47
2020/12/28 10:34:27;;;;;;;8.70;4.93;;;14.90;95.70;;;;;;5060197;28;20487;-51
2020/12/28 10:36:57;;;;;;;9.55;5.55;;;15.00;95.20;;;;;;5071261;28;20133;-50
2020/12/28 10:39:25;;;;;;;3.58;2.17;;;15.10;94.40;;;;;;5086207;28;20044;-51
2020/12/28 10:41:53;;;;;;;3.08;1.30;;;15.10;94.20;;;;;;5079542;28;20111;-49
2020/12/28 10:44:22;;;;;;;5.22;1.88;;;15.00;94.40;;;;;;5067529;28;20505;-48
2020/12/28 10:46:50;;;;;;;3.28;1.58;;;15.00;94.80;;;;;;5028162;28;20126;-50
2020/12/28 10:49:20;;;;;;;4.72;1.23;;;14.80;94.10;;;;;;5068755;28;20063;-49
2020/12/28 10:51:50;;;;;;;7.25;1.27;;;14.60;94.40;;;;;;5070546;28;20036;-48
2020/12/28 10:54:21;;;;;;;4.13;1.92;;;14.70;94.90;;;;;;5054509;28;20056;-48
2020/12/28 10:56:48;;;;;;;5.45;1.50;;;14.80;94.30;;;;;;5079067;28;20467;-49
2020/12/28 10:59:16;;;;;;;3.60;1.70;;;14.90;94.40;;;;;;5080282;28;20071;-49
2020/12/28 11:01:43;;;;;;;4.32;1.88;;;15.10;94.60;;;;;;5071352;28;20048;-48
2020/12/28 11:04:11;;;;;;;3.45;1.33;;;15.10;94.70;;;;;;5070897;28;20059;-47
2020/12/28 11:06:42;;;;;;;3.63;1.45;;;15.20;95.00;;;;;;5062454;28;20044;-47
2020/12/28 11:09:10;;;;;;;5.20;1.88;;;15.30;94.90;;;;;;5045696;28;20436;-48
2020/12/28 11:11:37;;;;;;;3.97;1.50;;;15.00;94.60;;;;;;5088130;28;20051;-52
2020/12/28 11:14:05;;;;;;;2.55;1.25;;;14.70;94.60;;;;;;5072383;28;20040;-53
2020/12/28 11:16:32;;;;;;;3.00;2.08;;;14.60;95.30;;;;;;5069781;28;20072;-47
2020/12/28 11:19:02;;;;;;;3.42;1.65;;;14.80;94.70;;;;;;5070323;28;20452;-48
2020/12/28 11:21:33;;;;;;;3.17;1.80;;;14.80;94.70;;;;;;5047433;28;20147;-50
2020/12/28 11:24:03;;;;;;;4.45;1.50;;;14.70;94.40;;;;;;5029616;28;20044;-49
2020/12/28 11:26:33;;;;;;;3.85;1.85;;;14.60;94.70;;;;;;5053833;28;20056;-50
2020/12/28 11:29:10;;;;;;;5.78;2.38;;;14.50;95.00;;;;;;5087994;28;20486;-48
2020/12/28 11:31:43;;;;;;;4.93;2.63;;;14.50;95.10;;;;;;5082039;28;20338;-52
2020/12/28 11:34:12;;;;;;;5.85;2.40;;;14.40;95.30;;;;;;5079536;28;20421;-51
2020/12/28 11:36:43;;;;;;;5.93;2.47;;;14.60;95.70;;;;;;5069987;28;20040;-52
2020/12/28 11:39:11;;;;;;;3.75;2.35;;;14.60;95.90;;;;;;5037099;28;20048;-51
2020/12/28 11:41:41;;;;;;;5.15;1.77;;;14.60;95.50;;;;;;5047191;28;20053;-50
2020/12/28 11:44:14;;;;;;;3.35;1.83;;;14.80;95.50;;;;;;5054614;28;20045;-51
2020/12/28 11:46:42;;;;;;;8.45;2.72;;;15.00;94.80;;;;;;5037157;28;20059;-52
2020/12/28 11:49:11;;;;;;;4.28;2.00;;;15.00;93.70;;;;;;5069368;28;20044;-50
2020/12/28 11:51:38;;;;;;;6.65;2.70;;;15.00;93.90;;;;;;5062550;28;20122;-48
2020/12/28 11:54:06;;;;;;;20.90;3.30;;;15.00;94.10;;;;;;5061562;28;20122;-52
2020/12/28 11:56:36;;;;;;;6.25;2.83;;;15.00;94.30;;;;;;5065167;28;20490;-51
2020/12/28 11:59:04;;;;;;;5.72;2.15;;;14.90;95.00;;;;;;5049733;28;20037;-50
2020/12/28 12:01:31;;;;;;;6.38;3.00;;;14.90;95.40;;;;;;5060837;28;20037;-50
2020/12/28 12:04:01;;;;;;;6.18;2.72;;;15.00;95.80;;;;;;5024922;28;20033;-53
2020/12/28 12:06:28;;;;;;;5.20;2.92;;;15.10;95.30;;;;;;5064887;28;20060;-48
2020/12/28 12:09:15;;;;;;;8.13;2.80;;;14.90;93.60;;;;;;5049172;28;20127;-52
2020/12/28 12:11:47;;;;;;;5.65;3.05;;;14.70;94.10;;;;;;5059109;28;20072;-47
2020/12/28 12:14:15;;;;;;;10.27;2.58;;;14.80;94.70;;;;;;5067536;28;20045;-52
2020/12/28 12:16:54;;;;;;;7.53;3.47;;;14.70;95.10;;;;;;5053143;28;20363;-51
2020/12/28 12:19:21;;;;;;;9.32;2.65;;;14.70;95.60;;;;;;5065828;28;20495;-47
2020/12/28 12:21:49;;;;;;;6.80;2.42;;;14.80;95.30;;;;;;5056916;28;20345;-50
2020/12/28 12:24:17;;;;;;;6.60;2.55;;;14.80;95.30;;;;;;5057555;28;20053;-47
2020/12/28 12:26:45;;;;;;;7.43;2.63;;;14.80;95.80;;;;;;5067574;28;20057;-47
2020/12/28 12:29:12;;;;;;;6.10;2.33;;;14.80;95.70;;;;;;5048961;28;20080;-49
2020/12/28 12:31:40;;;;;;;4.55;2.47;;;14.90;95.90;;;;;;5041646;28;20049;-48
2020/12/28 12:34:13;;;;;;;3.42;2.15;;;14.90;95.20;;;;;;5057042;28;20502;-52
2020/12/28 12:36:40;;;;;;;8.50;3.53;;;14.90;95.70;;;;;;5065691;28;20048;-50
2020/12/28 12:39:08;;;;;;;14.88;2.80;;;15.00;95.50;;;;;;5066597;28;20056;-51
2020/12/28 12:41:36;;;;;;;6.90;3.08;;;14.90;95.40;;;;;;5058106;28;20068;-52
2020/12/28 12:44:03;;;;;;;6.03;2.08;;;14.80;95.00;;;;;;5065864;28;20383;-51
2020/12/28 12:46:34;;;;;;;6.10;3.10;;;14.80;95.10;;;;;;5031086;28;20097;-53
2020/12/28 12:49:01;;;;;;;7.15;2.65;;;14.80;95.60;;;;;;5039173;28;20044;-49
2020/12/28 12:51:29;;;;;;;7.18;2.65;;;14.80;95.40;;;;;;5058024;28;20044;-53
2020/12/28 12:53:59;;;;;;;5.40;2.35;;;14.60;95.50;;;;;;5056923;28;20072;-46
2020/12/28 12:56:26;;;;;;;5.28;2.08;;;14.40;96.00;;;;;;5065248;28;20079;-50
2020/12/28 12:58:55;;;;;;;9.00;2.72;;;14.30;96.50;;;;;;5050885;28;20051;-55
2020/12/28 13:01:23;;;;;;;9.82;1.85;;;14.20;97.00;;;;;;5038097;28;20402;-49
2020/12/28 13:03:51;;;;;;;9.35;2.38;;;14.20;96.80;;;;;;5051203;28;20051;-50
2020/12/28 13:06:18;;;;;;;6.97;2.28;;;14.10;97.00;;;;;;5062147;28;20048;-50
2020/12/28 13:08:46;;;;;;;7.25;2.97;;;14.10;96.80;;;;;;5034825;28;20044;-51
2020/12/28 13:11:14;;;;;;;15.50;3.30;;;14.20;96.90;;;;;;5062308;28;20059;-51
2020/12/28 13:13:44;;;;;;;5.85;3.13;;;14.40;97.10;;;;;;5068918;28;20049;-49
2020/12/28 13:16:12;;;;;;;4.22;2.13;;;14.50;96.80;;;;;;5044863;28;20090;-47
2020/12/28 13:18:40;;;;;;;7.82;3.28;;;14.50;96.60;;;;;;5064208;28;20199;-50